Time;durP1;ratioP1;P1;durP2;ratioP2;P2;SDS_P1;SDS_P2;PMS_P1;PMS_P2;Temp;Humidity;BMP_temperature;BMP_pressure;BME280_temperature;BME280_humidity;BME280_pressure;Samples;Min_cycle;Max_cycle;Signal;HPM_P1;HPM_P2
2022/07/26 00:01:45;;;;;;;4.60;2.80;;;;;;;17.23;78.22;99168.48;108494;1283;140162;-61
2022/07/26 00:04:12;;;;;;;8.50;3.20;;;;;;;17.22;78.27;99164.14;108605;1282;22478;-61
2022/07/26 00:06:39;;;;;;;5.80;3.00;;;;;;;17.21;78.24;99163.49;108428;1283;138724;-61
2022/07/26 00:09:05;;;;;;;5.60;2.90;;;;;;;17.19;78.29;99164.09;108565;1283;23291;-61
2022/07/26 00:11:33;;;;;;;9.60;3.00;;;;;;;17.17;78.34;99163.42;108591;1283;22515;-61
2022/07/26 00:14:01;;;;;;;2.90;2.40;;;;;;;17.15;78.29;99164.58;108571;1282;138087;-60
2022/07/26 00:16:28;;;;;;;4.40;2.90;;;;;;;17.11;78.33;99157.59;108600;1283;22459;-60
2022/07/26 00:18:55;;;;;;;2.90;2.60;;;;;;;17.12;78.30;99163.68;108483;1283;138458;-60
2022/07/26 00:21:22;;;;;;;3.20;2.70;;;;;;;17.11;78.31;99166.01;108683;1282;22549;-60
2022/07/26 00:23:48;;;;;;;4.20;3.00;;;;;;;17.09;78.32;99160.64;108673;1281;22666;-60
2022/07/26 00:26:15;;;;;;;6.00;3.00;;;;;;;17.08;78.23;99158.58;108503;1281;137881;-60
2022/07/26 00:28:42;;;;;;;2.70;2.50;;;;;;;17.06;78.26;99161.92;109010;1278;22526;-60
2022/07/26 00:31:10;;;;;;;2.90;2.70;;;;;;;17.02;78.06;99155.09;108916;1277;138059;-60
2022/07/26 00:33:38;;;;;;;3.30;2.90;;;;;;;16.96;77.85;99152.06;109070;1277;22507;-60
2022/07/26 00:36:05;;;;;;;4.50;2.70;;;;;;;16.91;77.63;99154.42;108951;1278;138570;-60
2022/07/26 00:38:31;;;;;;;7.70;2.60;;;;;;;16.85;77.56;99154.58;109006;1277;22469;-60
2022/07/26 00:40:58;;;;;;;7.70;2.50;;;;;;;16.78;77.40;99152.73;109193;1278;22409;-60
2022/07/26 00:43:25;;;;;;;6.40;2.30;;;;;;;16.71;77.42;99155.44;108938;1277;139259;-61
2022/07/26 00:45:52;;;;;;;3.10;2.20;;;;;;;16.63;77.40;99153.48;109058;1277;22447;-61
2022/07/26 00:48:19;;;;;;;3.50;2.70;;;;;;;16.56;77.54;99150.80;109014;1278;139486;-61
2022/07/26 00:50:46;;;;;;;4.00;2.70;;;;;;;16.49;77.59;99150.83;108993;1280;22475;-61
2022/07/26 00:53:13;;;;;;;2.40;2.20;;;;;;;16.42;77.64;99149.11;108997;1279;23625;-61
2022/07/26 00:55:40;;;;;;;4.00;2.30;;;;;;;16.36;77.68;99143.73;107976;1280;138637;-61
2022/07/26 00:58:06;;;;;;;3.10;2.40;;;;;;;16.30;77.91;99143.63;104709;1281;24311;-60
2022/07/26 01:00:33;;;;;;;4.10;2.30;;;;;;;16.24;78.02;99138.73;104484;1281;138953;-61
2022/07/26 01:03:01;;;;;;;2.60;2.10;;;;;;;16.18;78.25;99136.65;104663;1281;23699;-60
2022/07/26 01:05:28;;;;;;;3.80;2.30;;;;;;;16.13;78.51;99135.12;104686;1280;23955;-60
2022/07/26 01:07:55;;;;;;;5.30;2.70;;;;;;;16.09;78.57;99136.27;104576;1280;137775;-60
2022/07/26 01:10:21;;;;;;;3.60;2.30;;;;;;;16.05;78.76;99136.73;104607;1281;22573;-59
2022/07/26 01:12:48;;;;;;;5.70;2.20;;;;;;;16.01;78.69;99138.86;104644;1278;137962;-59
2022/07/26 01:15:15;;;;;;;4.10;2.20;;;;;;;15.97;78.81;99136.89;104798;1278;22601;-59
2022/07/26 01:17:42;;;;;;;6.40;2.50;;;;;;;15.94;78.88;99139.14;104702;1281;22912;-59
2022/07/26 01:20:10;;;;;;;2.40;2.10;;;;;;;15.91;78.96;99139.67;104589;1280;138166;-59
2022/07/26 01:22:37;;;;;;;5.00;2.60;;;;;;;15.88;79.10;99142.48;108937;1280;22470;-60
2022/07/26 01:25:04;;;;;;;2.40;2.20;;;;;;;15.85;79.32;99142.05;108860;1280;138107;-60
2022/07/26 01:27:38;;;;;;;6.90;2.50;;;;;;;15.83;79.46;99146.54;108915;1280;22460;-60
2022/07/26 01:30:06;;;;;;;3.60;2.90;;;;;;;15.81;79.54;99148.21;108874;1278;139531;-60
2022/07/26 01:32:33;;;;;;;8.80;2.90;;;;;;;15.78;79.61;99146.89;109149;1278;22644;-60
2022/07/26 01:35:01;;;;;;;4.10;2.50;;;;;;;15.75;79.71;99143.98;108723;1281;23038;-60
2022/07/26 01:37:27;;;;;;;4.50;2.60;;;;;;;15.73;79.77;99150.45;108824;1281;138722;-60
2022/07/26 01:39:54;;;;;;;5.20;2.70;;;;;;;15.69;79.75;99147.11;109001;1279;23340;-60
2022/07/26 01:42:21;;;;;;;3.40;2.70;;;;;;;15.66;79.80;99146.34;109049;1278;137873;-60
2022/07/26 01:44:48;;;;;;;3.00;2.20;;;;;;;15.63;79.76;99145.67;108988;1280;24389;-59
2022/07/26 01:47:14;;;;;;;3.50;2.80;;;;;;;15.59;79.77;99146.88;108947;1280;22450;-59
2022/07/26 01:49:41;;;;;;;4.50;3.00;;;;;;;15.56;79.74;99148.97;108780;1280;139009;-59
2022/07/26 01:52:08;;;;;;;3.20;2.90;;;;;;;15.53;79.82;99153.16;108941;1280;22390;-59
2022/07/26 01:54:35;;;;;;;4.30;3.10;;;;;;;15.50;79.90;99148.10;108879;1279;138869;-59
2022/07/26 01:57:02;;;;;;;3.80;3.00;;;;;;;15.48;79.82;99144.23;108871;1280;23250;-59
2022/07/26 01:59:28;;;;;;;3.60;2.90;;;;;;;15.46;79.84;99141.23;109150;1277;22431;-59
2022/07/26 02:01:58;;;;;;;6.20;3.40;;;;;;;15.44;79.95;99143.96;108843;1280;138028;-63
2022/07/26 02:07:12;;;;;;;4.80;3.20;;;;;;;15.39;80.15;99143.23;108810;1281;137895;-60
2022/07/26 02:09:39;;;;;;;6.90;3.80;;;;;;;15.38;80.22;99142.42;108942;1280;22464;-60
2022/07/26 02:12:06;;;;;;;4.70;3.20;;;;;;;15.37;80.22;99139.30;108880;1278;140042;-61
2022/07/26 02:14:33;;;;;;;8.30;3.30;;;;;;;15.37;80.31;99137.23;108870;1279;22596;-60
2022/07/26 02:17:00;;;;;;;5.80;3.60;;;;;;;15.35;80.28;99135.06;108920;1279;22596;-61
2022/07/26 02:19:27;;;;;;;6.20;3.70;;;;;;;15.35;80.23;99135.39;108901;1281;138299;-60
2022/07/26 02:21:54;;;;;;;7.00;4.10;;;;;;;15.33;80.24;99136.01;108953;1280;23526;-61
2022/07/26 02:24:21;;;;;;;7.10;3.50;;;;;;;15.33;80.31;99136.23;108835;1280;139382;-60
2022/07/26 02:26:47;;;;;;;4.10;3.60;;;;;;;15.32;80.19;99136.91;108953;1280;23302;-60
2022/07/26 02:29:14;;;;;;;5.60;4.20;;;;;;;15.29;80.16;99136.91;108962;1280;23292;-61
2022/07/26 02:31:41;;;;;;;5.00;3.80;;;;;;;15.26;80.20;99137.08;109011;1277;139101;-60
2022/07/26 02:34:14;;;;;;;4.70;3.70;;;;;;;15.25;80.33;99136.66;109071;1277;22615;-61
2022/07/26 02:36:41;;;;;;;4.70;4.10;;;;;;;15.23;80.42;99139.14;109050;1277;138373;-61
2022/07/26 02:39:08;;;;;;;6.90;4.10;;;;;;;15.22;80.41;99138.92;109114;1277;23478;-60
2022/07/26 02:41:34;;;;;;;3.70;3.20;;;;;;;15.20;80.39;99139.06;109012;1279;22457;-60
2022/07/26 02:44:01;;;;;;;6.50;3.30;;;;;;;15.18;80.44;99142.21;108838;1280;138873;-60
2022/07/26 02:46:28;;;;;;;7.60;4.30;;;;;;;15.17;80.57;99142.52;108964;1280;22456;-61
2022/07/26 02:48:55;;;;;;;6.10;4.40;;;;;;;15.16;80.61;99139.34;108836;1280;140430;-60
2022/07/26 02:51:22;;;;;;;6.70;3.80;;;;;;;15.16;80.68;99136.65;108952;1280;23424;-61
2022/07/26 02:53:49;;;;;;;5.60;4.00;;;;;;;15.15;80.71;99137.16;108985;1280;22678;-61
2022/07/26 02:56:15;;;;;;;6.60;4.10;;;;;;;15.14;80.84;99134.55;108849;1278;138587;-60
2022/07/26 02:58:42;;;;;;;5.70;3.70;;;;;;;15.15;81.06;99138.27;108976;1279;22586;-61
2022/07/26 03:01:09;;;;;;;6.80;3.70;;;;;;;15.14;81.10;99142.39;108846;1278;138432;-61
2022/07/26 03:03:36;;;;;;;7.60;4.40;;;;;;;15.14;81.27;99146.69;108975;1280;22591;-60
2022/07/26 03:06:04;;;;;;;4.40;3.90;;;;;;;15.16;81.53;99141.31;108804;1280;138263;-61
2022/07/26 03:08:30;;;;;;;6.10;4.60;;;;;;;15.18;81.69;99139.25;109046;1277;22511;-61
2022/07/26 03:10:58;;;;;;;9.60;4.70;;;;;;;15.22;81.85;99141.35;108893;1281;23586;-61
2022/07/26 03:13:25;;;;;;;6.40;4.40;;;;;;;15.26;82.07;99138.94;108826;1279;138223;-61
2022/07/26 03:15:52;;;;;;;7.80;4.30;;;;;;;15.29;82.17;99133.45;108959;1280;22696;-60
2022/07/26 03:18:19;;;;;;;6.70;4.40;;;;;;;15.32;82.40;99133.29;109088;1277;139737;-60
2022/07/26 03:20:46;;;;;;;4.40;4.00;;;;;;;15.34;82.55;99133.48;108957;1280;22602;-61
2022/07/26 03:23:13;;;;;;;7.40;4.50;;;;;;;15.37;82.63;99136.17;108961;1280;23535;-61
2022/07/26 03:25:40;;;;;;;7.30;4.70;;;;;;;15.41;82.83;99142.00;108852;1278;138388;-61
2022/07/26 03:28:07;;;;;;;6.10;4.10;;;;;;;15.46;83.19;99141.89;109001;1280;22528;-61
2022/07/26 03:30:34;;;;;;;7.40;4.30;;;;;;;15.52;83.24;99140.55;109054;1277;141143;-61
2022/07/26 03:33:01;;;;;;;6.40;4.50;;;;;;;15.58;83.32;99137.79;108958;1280;22562;-61
2022/07/26 03:35:27;;;;;;;6.20;5.20;;;;;;;15.63;83.50;99139.99;109200;1277;23092;-61
2022/07/26 03:37:54;;;;;;;8.90;5.60;;;;;;;15.69;83.64;99138.80;108914;1277;138429;-60
2022/07/26 03:40:21;;;;;;;6.20;4.80;;;;;;;15.76;83.71;99133.36;109052;1277;22455;-61
2022/07/26 03:42:48;;;;;;;6.90;4.90;;;;;;;15.81;83.85;99131.09;108898;1278;139181;-60
2022/07/26 03:45:14;;;;;;;8.00;5.00;;;;;;;15.87;83.90;99131.45;108962;1280;22533;-61
2022/07/26 03:47:42;;;;;;;5.00;4.00;;;;;;;15.93;83.97;99129.92;108926;1277;22488;-60
2022/07/26 03:50:09;;;;;;;4.30;3.80;;;;;;;16.00;83.94;99129.14;108880;1280;138263;-61
2022/07/26 03:52:36;;;;;;;7.40;4.50;;;;;;;16.06;83.88;99133.30;108967;1279;22426;-59
2022/07/26 03:56:27;;;;;;;5.80;4.40;;;;;;;16.13;83.90;99132.79;109086;1277;139680;-59
2022/07/26 03:57:51;;;;;;;;;;;;;;;16.23;83.85;99135.35;109145;1277;22639;-59
2022/07/26 04:00:17;;;;;;;7.90;6.60;;;;;;;16.30;83.61;99136.48;108829;1279;124964;-59
2022/07/26 04:02:44;;;;;;;8.70;6.60;;;;;;;16.36;83.54;99139.21;108977;1279;22443;-59
2022/07/26 04:05:11;;;;;;;11.60;6.50;;;;;;;16.44;83.36;99137.58;109153;1277;22500;-60
2022/07/26 04:07:45;;;;;;;9.90;5.20;;;;;;;16.52;83.15;99138.79;108855;1278;138677;-59
2022/07/26 04:10:19;;;;;;;6.40;4.60;;;;;;;16.61;82.64;99142.56;108971;1278;22652;-59
2022/07/26 04:12:46;;;;;;;6.70;4.00;;;;;;;16.69;82.12;99148.55;108889;1280;138386;-59
2022/07/26 04:15:15;;;;;;;5.60;4.30;;;;;;;16.76;81.71;99147.90;109057;1277;25395;-55
2022/07/26 04:17:43;;;;;;;4.00;3.40;;;;;;;16.84;81.38;99150.09;109117;1277;22519;-60
2022/07/26 04:20:10;;;;;;;8.90;4.00;;;;;;;16.91;81.17;99149.95;108874;1280;138168;-60
2022/07/26 04:22:37;;;;;;;5.10;4.10;;;;;;;17.00;81.04;99149.67;109151;1277;22518;-61
2022/07/26 04:25:05;;;;;;;5.20;3.90;;;;;;;17.09;80.85;99150.52;108994;1277;139294;-61
2022/07/26 04:27:32;;;;;;;7.40;4.30;;;;;;;17.17;80.48;99149.23;108948;1277;22547;-60
2022/07/26 04:29:59;;;;;;;10.80;3.70;;;;;;;17.24;80.24;99153.80;108917;1277;140814;-61
2022/07/26 04:32:25;;;;;;;4.00;3.50;;;;;;;17.32;79.93;99154.23;109195;1277;23254;-60
2022/07/26 04:34:52;;;;;;;5.90;3.90;;;;;;;17.38;79.66;99156.78;109114;1277;22484;-61
2022/07/26 04:37:19;;;;;;;9.90;4.40;;;;;;;17.44;79.28;99156.64;108878;1279;138400;-61
2022/07/26 04:39:46;;;;;;;7.60;4.40;;;;;;;17.51;78.51;99159.60;108986;1279;22444;-60
2022/07/26 04:42:20;;;;;;;9.80;4.80;;;;;;;17.56;77.88;99157.95;108918;1277;138264;-61
2022/07/26 04:44:46;;;;;;;7.20;4.20;;;;;;;17.60;77.87;99161.09;109071;1277;22612;-61
2022/07/26 04:47:13;;;;;;;7.80;4.70;;;;;;;17.62;77.37;99160.67;109059;1277;22538;-61
2022/07/26 04:49:40;;;;;;;6.30;4.20;;;;;;;17.69;77.18;99165.83;108866;1279;138043;-61
2022/07/26 04:52:07;;;;;;;6.40;4.30;;;;;;;17.73;77.23;99168.87;108982;1279;22498;-61
2022/07/26 04:54:34;;;;;;;9.50;5.00;;;;;;;17.78;77.20;99168.77;108880;1280;139604;-61
2022/07/26 04:57:00;;;;;;;6.80;4.80;;;;;;;17.84;76.95;99169.19;108897;1280;22574;-61
2022/07/26 04:59:27;;;;;;;9.50;4.60;;;;;;;17.89;76.72;99170.37;108861;1280;23003;-61
2022/07/26 05:01:58;;;;;;;6.60;4.30;;;;;;;17.95;76.67;99168.85;108846;1278;139052;-62
2022/07/26 05:04:25;;;;;;;11.40;5.10;;;;;;;17.99;76.50;99170.99;109129;1277;23207;-61
2022/07/26 05:06:52;;;;;;;9.30;5.00;;;;;;;18.08;76.48;99171.58;109064;1277;138589;-61
2022/07/26 05:09:19;;;;;;;7.00;4.90;;;;;;;18.16;76.16;99171.52;108969;1280;22446;-61
2022/07/26 05:11:45;;;;;;;6.50;4.10;;;;;;;18.22;75.85;99169.68;108940;1277;23219;-61
2022/07/26 05:14:12;;;;;;;7.20;4.70;;;;;;;18.28;75.83;99170.63;108921;1277;138541;-61
2022/07/26 05:16:39;;;;;;;6.60;4.50;;;;;;;18.36;75.76;99173.19;106383;1277;25257;-61
2022/07/26 05:19:12;;;;;;;7.50;4.30;;;;;;;18.49;75.96;99173.63;104483;1280;138379;-60
2022/07/26 05:21:39;;;;;;;10.00;4.60;;;;;;;18.64;75.86;99170.46;104604;1280;22696;-61
2022/07/26 05:24:06;;;;;;;5.00;4.20;;;;;;;18.86;75.21;99172.71;104457;1280;138368;-60
2022/07/26 05:26:33;;;;;;;9.10;4.70;;;;;;;19.10;74.53;99170.00;109022;1277;22467;-61
2022/07/26 05:29:00;;;;;;;6.10;3.70;;;;;;;19.41;73.63;99169.88;109035;1277;23535;-61
2022/07/26 05:31:27;;;;;;;5.90;3.70;;;;;;;19.78;72.57;99168.34;109079;1277;139867;-63
2022/07/26 05:33:54;;;;;;;9.00;4.20;;;;;;;20.18;71.42;99166.24;109002;1280;22695;-62
2022/07/26 05:36:21;;;;;;;8.50;3.80;;;;;;;20.57;70.17;99158.73;108987;1277;139703;-61
2022/07/26 05:38:48;;;;;;;6.50;3.90;;;;;;;20.93;68.94;99157.26;109045;1278;22529;-61
2022/07/26 05:41:15;;;;;;;9.80;3.80;;;;;;;21.28;67.26;99159.83;108992;1277;24282;-62
2022/07/26 05:43:42;;;;;;;7.50;4.20;;;;;;;21.52;65.71;99155.04;108901;1277;139841;-62
2022/07/26 05:46:09;;;;;;;10.70;4.10;;;;;;;21.71;64.84;99155.42;109115;1277;22498;-61
2022/07/26 05:48:40;;;;;;;8.20;4.00;;;;;;;21.86;63.85;99157.95;108869;1277;138278;-61
2022/07/26 05:51:08;;;;;;;6.50;4.50;;;;;;;22.06;63.05;99156.39;108968;1279;22461;-61
2022/07/26 05:53:35;;;;;;;6.80;3.90;;;;;;;22.16;62.36;99157.61;109059;1277;22265;-62
2022/07/26 05:56:03;;;;;;;7.50;4.10;;;;;;;22.15;62.10;99158.36;108981;1277;138022;-61
2022/07/26 05:58:29;;;;;;;5.90;4.30;;;;;;;22.28;62.13;99158.89;109144;1277;22589;-61
2022/07/26 06:00:56;;;;;;;5.40;3.50;;;;;;;22.56;61.42;99153.34;108886;1277;137737;-61
2022/07/26 06:03:23;;;;;;;7.70;4.30;;;;;;;22.85;60.85;99156.45;109057;1277;22443;-61
2022/07/26 06:05:54;;;;;;;7.00;4.40;;;;;;;23.11;59.80;99152.85;109114;1277;22553;-61
2022/07/26 06:08:21;;;;;;;5.20;4.00;;;;;;;23.25;59.22;99145.80;109144;1277;139022;-61
2022/07/26 06:10:48;;;;;;;4.20;3.40;;;;;;;23.25;58.71;99150.72;109047;1277;22561;-61
2022/07/26 06:13:15;;;;;;;7.00;4.10;;;;;;;23.10;58.74;99148.84;108956;1277;138683;-61
2022/07/26 06:15:43;;;;;;;6.80;3.80;;;;;;;23.00;58.95;99152.88;109010;1277;22479;-61
2022/07/26 06:18:10;;;;;;;5.80;3.60;;;;;;;22.83;58.79;99152.02;108947;1277;139040;-61
2022/07/26 06:20:38;;;;;;;4.70;3.40;;;;;;;22.62;59.40;99149.89;109460;1272;22412;-61
2022/07/26 06:23:05;;;;;;;5.40;3.50;;;;;;;22.43;59.55;99146.70;109431;1274;22506;-61
2022/07/26 06:25:32;;;;;;;7.30;3.50;;;;;;;22.19;60.26;99144.64;109235;1274;138409;-61
2022/07/26 06:28:01;;;;;;;8.70;3.30;;;;;;;22.01;60.81;99144.06;109329;1274;22465;-61
2022/07/26 06:30:28;;;;;;;12.00;3.90;;;;;;;21.83;61.34;99144.08;109358;1274;137672;-61
2022/07/26 06:32:55;;;;;;;35.60;7.80;;;;;;;21.69;62.08;99142.19;109467;1274;23445;-61
2022/07/26 06:35:23;;;;;;;10.10;3.80;;;;;;;21.61;62.78;99140.16;109437;1273;23196;-61
2022/07/26 06:37:49;;;;;;;8.20;3.90;;;;;;;21.55;62.86;99135.66;109281;1274;138668;-61
2022/07/26 06:40:16;;;;;;;9.10;3.60;;;;;;;21.52;63.06;99132.72;109359;1274;22471;-61
2022/07/26 06:42:43;;;;;;;5.60;2.80;;;;;;;21.51;63.34;99135.76;109292;1273;139041;-60
2022/07/26 06:45:10;;;;;;;6.30;2.90;;;;;;;21.48;63.37;99126.16;109404;1274;23131;-59
2022/07/26 06:47:37;;;;;;;5.40;2.60;;;;;;;21.47;63.01;99125.48;109453;1274;22543;-60
2022/07/26 06:50:04;;;;;;;3.30;2.70;;;;;;;21.42;63.26;99124.50;109275;1274;139341;-61
2022/07/26 06:52:31;;;;;;;4.00;2.90;;;;;;;21.35;63.64;99125.64;109372;1274;22459;-61
2022/07/26 06:54:59;;;;;;;6.00;3.30;;;;;;;21.33;63.89;99123.15;109284;1274;138868;-61
2022/07/26 06:57:26;;;;;;;6.60;3.30;;;;;;;21.35;63.95;99120.66;109345;1274;23240;-61
2022/07/26 06:59:52;;;;;;;3.80;2.60;;;;;;;21.37;63.81;99123.75;109420;1274;22664;-61
2022/07/26 07:02:19;;;;;;;6.20;3.20;;;;;;;21.37;63.29;99122.77;109177;1274;139812;-61
2022/07/26 07:04:46;;;;;;;4.30;2.80;;;;;;;21.27;63.01;99127.43;109419;1274;23730;-62
2022/07/26 07:07:13;;;;;;;4.20;3.00;;;;;;;21.19;63.08;99127.25;109172;1274;137437;-61
2022/07/26 07:09:40;;;;;;;3.40;2.70;;;;;;;21.13;63.26;99126.85;109399;1274;22409;-61
2022/07/26 07:12:07;;;;;;;10.20;3.20;;;;;;;21.10;63.34;99124.98;109255;1274;137821;-61
2022/07/26 07:14:37;;;;;;;5.20;3.20;;;;;;;21.07;63.62;99119.16;109298;1274;22536;-61
2022/07/26 07:17:04;;;;;;;6.20;3.80;;;;;;;21.09;64.04;99116.57;109271;1274;22481;-61
2022/07/26 07:19:38;;;;;;;4.00;3.00;;;;;;;21.15;63.66;99115.30;109175;1274;138325;-61
2022/07/26 07:22:05;;;;;;;8.30;3.40;;;;;;;21.19;63.68;99113.34;109251;1275;22443;-61
2022/07/26 07:24:32;;;;;;;7.60;3.60;;;;;;;21.27;63.88;99116.71;109137;1274;139360;-61
2022/07/26 07:27:00;;;;;;;13.30;4.00;;;;;;;21.37;63.37;99115.73;109267;1274;22424;-61
2022/07/26 07:29:26;;;;;;;6.30;3.50;;;;;;;21.44;62.91;99114.90;109267;1274;22481;-61
2022/07/26 07:31:54;;;;;;;8.40;3.40;;;;;;;21.49;62.92;99106.99;109079;1274;138206;-61
2022/07/26 07:34:22;;;;;;;4.70;3.80;;;;;;;21.50;62.95;99108.08;109393;1273;22441;-61
2022/07/26 07:36:49;;;;;;;5.90;3.50;;;;;;;21.52;62.43;99106.65;109263;1274;137328;-61
2022/07/26 07:39:16;;;;;;;5.30;3.10;;;;;;;21.50;62.31;99104.75;109421;1274;22464;-61
2022/07/26 07:41:46;;;;;;;4.80;3.20;;;;;;;21.47;62.09;99107.44;109530;1272;22403;-61
2022/07/26 07:44:13;;;;;;;7.80;3.30;;;;;;;21.44;62.00;99106.22;109174;1274;138000;-61
2022/07/26 07:46:40;;;;;;;7.50;3.50;;;;;;;21.40;62.21;99109.22;106602;1274;22591;-60
2022/07/26 07:49:07;;;;;;;4.90;3.10;;;;;;;21.32;62.24;99109.79;104862;1275;137465;-60
2022/07/26 07:51:34;;;;;;;5.40;3.00;;;;;;;21.25;62.11;99114.04;104993;1274;23700;-60
2022/07/26 07:54:02;;;;;;;5.30;3.20;;;;;;;21.22;61.93;99113.50;104810;1275;138210;-60
2022/07/26 07:56:32;;;;;;;6.80;3.10;;;;;;;21.21;62.20;99114.13;104817;1276;24101;-60
2022/07/26 07:58:59;;;;;;;3.40;2.30;;;;;;;21.24;62.30;99117.27;104853;1274;24317;-60
2022/07/26 08:01:26;;;;;;;7.50;2.60;;;;;;;21.29;61.94;99114.11;104800;1274;138311;-61
2022/07/26 08:04:07;;;;;;;5.70;2.60;;;;;;;21.40;61.58;99120.76;104981;1274;22576;-61
2022/07/26 08:06:34;;;;;;;6.10;3.00;;;;;;;21.51;61.37;99119.43;108978;1276;138573;-61
2022/07/26 08:09:02;;;;;;;4.10;2.40;;;;;;;21.61;60.99;99126.14;109290;1274;22482;-62
2022/07/26 08:11:31;;;;;;;4.60;2.50;;;;;;;21.66;60.11;99124.30;109284;1274;22478;-61
2022/07/26 08:14:00;;;;;;;8.20;3.10;;;;;;;21.67;59.89;99123.02;109155;1274;137428;-59
2022/07/26 08:16:27;;;;;;;6.90;2.50;;;;;;;21.72;59.87;99126.28;109218;1276;23395;-60
2022/07/26 08:18:54;;;;;;;5.30;3.30;;;;;;;21.75;59.54;99122.08;109312;1274;138372;-60
2022/07/26 08:21:26;;;;;;;4.80;2.40;;;;;;;21.76;59.58;99115.94;109236;1274;22553;-61
2022/07/26 08:23:55;;;;;;;5.10;2.20;;;;;;;21.77;59.52;99114.36;109297;1274;22642;-61
2022/07/26 08:26:22;;;;;;;4.30;2.60;;;;;;;21.80;60.00;99114.80;109129;1274;137222;-61
2022/07/26 08:28:49;;;;;;;5.50;2.90;;;;;;;21.90;59.94;99111.50;109190;1276;22513;-60
2022/07/26 08:31:27;;;;;;;7.10;3.00;;;;;;;22.03;59.82;99112.04;109142;1274;138072;-61
2022/07/26 08:33:54;;;;;;;8.60;2.80;;;;;;;22.14;59.65;99113.15;109228;1274;23401;-60
2022/07/26 08:36:22;;;;;;;7.10;3.00;;;;;;;22.23;58.93;99111.23;109348;1274;137466;-60
2022/07/26 08:38:49;;;;;;;6.60;3.10;;;;;;;22.30;58.23;99108.98;109091;1276;22582;-61
2022/07/26 08:41:16;;;;;;;4.80;2.90;;;;;;;22.33;57.97;99109.99;109399;1274;23257;-61
2022/07/26 08:43:44;;;;;;;3.40;2.80;;;;;;;22.35;57.96;99110.77;109173;1274;137760;-60
2022/07/26 08:46:22;;;;;;;5.80;3.30;;;;;;;22.37;58.34;99112.89;109284;1274;22617;-62
2022/07/26 08:48:54;;;;;;;3.50;2.80;;;;;;;22.42;58.16;99110.84;109344;1273;138870;-61
2022/07/26 08:51:22;;;;;;;5.30;2.70;;;;;;;22.48;57.81;99109.67;109264;1274;22663;-62
2022/07/26 08:53:51;;;;;;;3.90;3.30;;;;;;;22.48;57.41;99109.08;109315;1274;22588;-60
2022/07/26 08:56:18;;;;;;;5.50;3.10;;;;;;;22.47;57.47;99113.23;107034;1272;137388;-60
2022/07/26 08:58:44;;;;;;;4.60;3.30;;;;;;;22.46;57.01;99109.56;105036;1274;22625;-61
2022/07/26 09:01:11;;;;;;;4.30;2.80;;;;;;;22.46;57.05;99107.02;104875;1274;138486;-60
2022/07/26 09:03:42;;;;;;;3.30;2.90;;;;;;;22.45;57.10;99105.00;104822;1275;22940;-61
2022/07/26 09:06:18;;;;;;;3.60;2.80;;;;;;;22.46;56.92;99103.76;104983;1274;137485;-60
2022/07/26 09:08:47;;;;;;;10.80;3.90;;;;;;;22.48;57.29;99102.46;104860;1277;22714;-60
2022/07/26 09:24:44;;;;;;;7.50;2.70;;;;;;;22.90;55.54;99085.45;101483;1310;558900;-61
2022/07/26 09:27:12;;;;;;;7.10;2.70;;;;;;;22.99;55.40;99078.79;107804;1287;248903;-62
2022/07/26 09:29:43;;;;;;;6.50;2.60;;;;;;;23.03;54.92;99077.40;107950;1289;137260;-61
2022/07/26 09:32:12;;;;;;;3.80;2.60;;;;;;;23.05;54.52;99075.72;108076;1288;23300;-62
2022/07/26 09:34:42;;;;;;;5.10;2.30;;;;;;;23.06;54.41;99069.48;108127;1287;22483;-61
2022/07/26 09:37:18;;;;;;;3.90;2.70;;;;;;;23.04;54.35;99067.98;108701;1280;138104;-61
2022/07/26 09:39:58;;;;;;;3.80;2.60;;;;;;;23.03;54.74;99066.77;108839;1280;22463;-59
2022/07/26 09:42:25;;;;;;;2.60;2.40;;;;;;;23.03;54.22;99066.34;108709;1280;137355;-61
2022/07/26 09:44:55;;;;;;;4.40;2.60;;;;;;;23.00;53.75;99070.95;108831;1280;22479;-60
2022/07/26 09:47:26;;;;;;;3.60;2.50;;;;;;;22.96;53.42;99069.63;108927;1280;22483;-61
2022/07/26 09:50:10;;;;;;;2.80;2.30;;;;;;;22.90;53.29;99073.77;108702;1280;22417;-61
2022/07/26 09:52:37;;;;;;;3.90;2.20;;;;;;;22.91;52.94;99074.42;108847;1280;22593;-61
2022/07/26 09:55:05;;;;;;;5.00;2.30;;;;;;;22.94;52.38;99070.69;108751;1280;138383;-61
2022/07/26 09:57:34;;;;;;;2.70;2.10;;;;;;;22.97;51.85;99070.38;108860;1280;22592;-61
2022/07/26 10:00:03;;;;;;;4.50;2.10;;;;;;;23.04;51.97;99067.90;108713;1280;139718;-61
2022/07/26 10:02:31;;;;;;;9.80;2.50;;;;;;;23.14;51.46;99064.36;108874;1280;22487;-61
2022/07/26 10:04:58;;;;;;;5.20;2.30;;;;;;;23.20;52.03;99064.49;108735;1280;23076;-60
2022/07/26 10:07:25;;;;;;;4.30;3.10;;;;;;;23.27;52.17;99067.79;108769;1280;137911;-62
2022/07/26 10:09:56;;;;;;;5.60;2.70;;;;;;;23.36;52.20;99070.59;108645;1280;22413;-61
2022/07/26 10:12:23;;;;;;;5.00;2.90;;;;;;;23.43;52.44;99071.80;108567;1280;138026;-60
2022/07/26 10:14:56;;;;;;;3.80;3.00;;;;;;;23.48;51.68;99074.97;108747;1281;22472;-62
2022/07/26 10:17:25;;;;;;;6.60;2.50;;;;;;;23.52;50.56;99071.14;108687;1281;23529;-63
2022/07/26 10:20:01;;;;;;;4.30;2.60;;;;;;;23.56;50.06;99069.34;108676;1281;23140;-62
2022/07/26 10:22:34;;;;;;;4.30;2.60;;;;;;;23.57;49.62;99061.81;108735;1280;22548;-62
2022/07/26 10:25:30;;;;;;;3.60;2.80;;;;;;;23.59;50.84;99060.87;108753;1279;138892;-62
2022/07/26 10:27:56;;;;;;;5.50;2.70;;;;;;;23.69;50.79;99062.92;108640;1281;22617;-62
2022/07/26 10:30:25;;;;;;;6.20;2.40;;;;;;;23.77;50.41;99057.52;108596;1280;137014;-61
2022/07/26 10:33:10;;;;;;;4.50;2.80;;;;;;;23.82;50.32;99061.29;108658;1283;22412;-62
2022/07/26 10:35:42;;;;;;;5.80;3.20;;;;;;;23.83;50.32;99060.45;108569;1280;137946;-61
2022/07/26 10:38:25;;;;;;;3.70;2.70;;;;;;;23.80;49.77;99056.16;108551;1283;22648;-61
2022/07/26 10:40:59;;;;;;;4.60;2.60;;;;;;;23.77;50.17;99059.11;108706;1282;22455;-62
2022/07/26 10:43:27;;;;;;;2.90;2.30;;;;;;;23.77;50.27;99063.95;108447;1283;137139;-61
2022/07/26 10:46:15;;;;;;;3.60;2.50;;;;;;;23.76;49.62;99063.05;108741;1282;22428;-61
2022/07/26 10:48:56;;;;;;;6.70;2.40;;;;;;;23.73;49.82;99058.52;108631;1281;137146;-62
2022/07/26 10:51:28;;;;;;;6.30;2.70;;;;;;;23.75;50.22;99062.77;108654;1281;23208;-61
2022/07/26 10:54:02;;;;;;;3.20;2.50;;;;;;;23.77;49.76;99060.94;108918;1277;137264;-62
2022/07/26 10:56:29;;;;;;;2.90;2.30;;;;;;;23.83;48.86;99064.44;109047;1278;22477;-61
2022/07/26 10:58:59;;;;;;;4.00;2.60;;;;;;;23.87;49.05;99063.59;109185;1277;22529;-61
2022/07/26 11:01:36;;;;;;;2.70;2.30;;;;;;;23.89;48.89;99060.93;108911;1277;137499;-61
2022/07/26 11:04:03;;;;;;;3.00;2.50;;;;;;;23.89;48.49;99063.24;109083;1277;23645;-61
2022/07/26 11:06:30;;;;;;;3.40;2.30;;;;;;;23.88;48.55;99055.52;109046;1277;137848;-65
2022/07/26 11:08:57;;;;;;;4.30;2.50;;;;;;;23.88;48.85;99046.60;108955;1277;23209;-62
2022/07/26 11:11:31;;;;;;;2.30;2.10;;;;;;;23.90;48.52;99044.74;109023;1277;22474;-62
2022/07/26 11:14:08;;;;;;;3.70;2.30;;;;;;;23.90;48.27;99046.77;109088;1277;22468;-62
2022/07/26 11:16:39;;;;;;;7.90;2.70;;;;;;;23.91;48.08;99046.92;109130;1277;22448;-61
2022/07/26 11:19:19;;;;;;;7.50;2.90;;;;;;;23.91;48.00;99052.64;108851;1279;137982;-61
2022/07/26 11:21:51;;;;;;;5.80;2.50;;;;;;;23.88;47.85;99054.93;108978;1279;24515;-62
2022/07/26 11:24:20;;;;;;;4.10;2.50;;;;;;;23.81;47.92;99052.45;108909;1277;138426;-62
2022/07/26 11:26:47;;;;;;;2.40;2.00;;;;;;;23.78;48.05;99048.33;109010;1277;22348;-62
2022/07/26 11:29:14;;;;;;;5.30;2.40;;;;;;;23.78;48.19;99046.75;109045;1277;22477;-61
2022/07/26 11:31:44;;;;;;;8.20;2.30;;;;;;;23.84;47.99;99042.98;108890;1277;137158;-61
2022/07/26 11:34:28;;;;;;;3.30;2.00;;;;;;;23.93;47.17;99045.06;109160;1277;22471;-61
2022/07/26 11:36:56;;;;;;;3.20;2.30;;;;;;;24.02;47.50;99047.36;109025;1277;137052;-61
2022/07/26 11:39:28;;;;;;;2.40;2.10;;;;;;;24.08;47.16;99039.09;108997;1277;22448;-62
2022/07/26 11:42:15;;;;;;;2.80;2.20;;;;;;;24.13;46.83;99041.50;109049;1277;137341;-61
2022/07/26 11:44:43;;;;;;;4.10;2.10;;;;;;;24.17;46.76;99039.23;109143;1277;22374;-62